sensor_id;sensor_type;location;lat;lon;timestamp;P1;durP1;ratioP1;P2;durP2;ratioP2
49722;SDS011;43484;43.608;1.458;2023-01-01T00:02:05;32.78;;;8.00;;
49722;SDS011;43484;43.608;1.458;2023-01-01T00:04:32;30.92;;;6.93;;
49722;SDS011;43484;43.608;1.458;2023-01-01T00:06:59;26.58;;;7.53;;
49722;SDS011;43484;43.608;1.458;2023-01-01T00:09:26;33.00;;;6.43;;
49722;SDS011;43484;43.608;1.458;2023-01-01T00:14:37;31.83;;;6.15;;
49722;SDS011;43484;43.608;1.458;2023-01-01T00:17:04;32.90;;;7.45;;
49722;SDS011;43484;43.608;1.458;2023-01-01T00:19:31;37.65;;;7.20;;
49722;SDS011;43484;43.608;1.458;2023-01-01T00:21:57;29.05;;;6.75;;
49722;SDS011;43484;43.608;1.458;2023-01-01T00:24:35;40.88;;;7.70;;
49722;SDS011;43484;43.608;1.458;2023-01-01T00:27:01;40.08;;;7.80;;
49722;SDS011;43484;43.608;1.458;2023-01-01T00:29:28;36.83;;;8.82;;
49722;SDS011;43484;43.608;1.458;2023-01-01T00:31:54;33.67;;;8.75;;
49722;SDS011;43484;43.608;1.458;2023-01-01T00:34:21;20.00;;;6.03;;
49722;SDS011;43484;43.608;1.458;2023-01-01T00:36:47;43.08;;;7.90;;
49722;SDS011;43484;43.608;1.458;2023-01-01T00:39:14;40.28;;;7.05;;
49722;SDS011;43484;43.608;1.458;2023-01-01T00:41:40;31.20;;;5.28;;
49722;SDS011;43484;43.608;1.458;2023-01-01T00:44:07;34.15;;;7.72;;
49722;SDS011;43484;43.608;1.458;2023-01-01T00:46:34;27.17;;;5.82;;
49722;SDS011;43484;43.608;1.458;2023-01-01T00:49:00;31.27;;;6.05;;
49722;SDS011;43484;43.608;1.458;2023-01-01T00:51:27;37.05;;;7.78;;
49722;SDS011;43484;43.608;1.458;2023-01-01T00:54:02;45.92;;;7.07;;
49722;SDS011;43484;43.608;1.458;2023-01-01T00:56:28;26.48;;;6.22;;
49722;SDS011;43484;43.608;1.458;2023-01-01T00:58:55;29.17;;;5.65;;
49722;SDS011;43484;43.608;1.458;2023-01-01T01:01:27;30.67;;;6.05;;
49722;SDS011;43484;43.608;1.458;2023-01-01T01:03:53;25.65;;;6.03;;
49722;SDS011;43484;43.608;1.458;2023-01-01T01:06:20;26.77;;;5.35;;
49722;SDS011;43484;43.608;1.458;2023-01-01T01:08:46;25.88;;;6.43;;
49722;SDS011;43484;43.608;1.458;2023-01-01T01:11:14;26.70;;;5.40;;
49722;SDS011;43484;43.608;1.458;2023-01-01T01:13:47;23.08;;;5.47;;
49722;SDS011;43484;43.608;1.458;2023-01-01T01:16:19;31.17;;;6.70;;
49722;SDS011;43484;43.608;1.458;2023-01-01T01:18:52;29.60;;;5.30;;
49722;SDS011;43484;43.608;1.458;2023-01-01T01:21:21;37.58;;;6.85;;
49722;SDS011;43484;43.608;1.458;2023-01-01T01:23:49;28.02;;;6.07;;
49722;SDS011;43484;43.608;1.458;2023-01-01T01:26:18;29.75;;;6.20;;
49722;SDS011;43484;43.608;1.458;2023-01-01T01:28:49;31.38;;;5.18;;
49722;SDS011;43484;43.608;1.458;2023-01-01T01:31:16;28.95;;;5.78;;
49722;SDS011;43484;43.608;1.458;2023-01-01T01:33:44;30.88;;;6.03;;
49722;SDS011;43484;43.608;1.458;2023-01-01T01:36:12;30.90;;;5.60;;
49722;SDS011;43484;43.608;1.458;2023-01-01T01:38:40;35.53;;;6.88;;
49722;SDS011;43484;43.608;1.458;2023-01-01T01:41:07;32.67;;;6.20;;
49722;SDS011;43484;43.608;1.458;2023-01-01T01:46:41;32.83;;;6.20;;
49722;SDS011;43484;43.608;1.458;2023-01-01T01:49:13;27.77;;;6.63;;
49722;SDS011;43484;43.608;1.458;2023-01-01T01:51:49;29.52;;;6.22;;
49722;SDS011;43484;43.608;1.458;2023-01-01T01:54:17;31.27;;;6.47;;
49722;SDS011;43484;43.608;1.458;2023-01-01T01:56:49;29.73;;;6.97;;
49722;SDS011;43484;43.608;1.458;2023-01-01T01:59:19;35.15;;;6.00;;
49722;SDS011;43484;43.608;1.458;2023-01-01T02:01:47;27.30;;;6.30;;
49722;SDS011;43484;43.608;1.458;2023-01-01T02:04:14;36.97;;;6.10;;
49722;SDS011;43484;43.608;1.458;2023-01-01T02:06:42;43.58;;;6.45;;
49722;SDS011;43484;43.608;1.458;2023-01-01T02:09:10;38.60;;;5.90;;
49722;SDS011;43484;43.608;1.458;2023-01-01T02:11:36;31.20;;;6.22;;
49722;SDS011;43484;43.608;1.458;2023-01-01T02:14:03;29.38;;;6.20;;
49722;SDS011;43484;43.608;1.458;2023-01-01T02:22:10;40.05;;;7.05;;
49722;SDS011;43484;43.608;1.458;2023-01-01T02:24:52;31.55;;;6.82;;
49722;SDS011;43484;43.608;1.458;2023-01-01T02:27:39;32.58;;;7.70;;
49722;SDS011;43484;43.608;1.458;2023-01-01T02:30:33;27.92;;;5.75;;
49722;SDS011;43484;43.608;1.458;2023-01-01T02:33:02;38.08;;;7.50;;
49722;SDS011;43484;43.608;1.458;2023-01-01T02:35:35;31.02;;;6.35;;
49722;SDS011;43484;43.608;1.458;2023-01-01T02:40:58;39.03;;;8.18;;
49722;SDS011;43484;43.608;1.458;2023-01-01T02:43:28;43.15;;;7.72;;
49722;SDS011;43484;43.608;1.458;2023-01-01T02:45:54;30.90;;;6.63;;
49722;SDS011;43484;43.608;1.458;2023-01-01T02:48:42;43.05;;;7.70;;
49722;SDS011;43484;43.608;1.458;2023-01-01T02:54:29;33.13;;;6.80;;
49722;SDS011;43484;43.608;1.458;2023-01-01T02:59:22;37.30;;;7.05;;
49722;SDS011;43484;43.608;1.458;2023-01-01T03:02:21;35.92;;;6.95;;
49722;SDS011;43484;43.608;1.458;2023-01-01T03:10:11;35.50;;;6.68;;
49722;SDS011;43484;43.608;1.458;2023-01-01T03:12:51;33.90;;;6.20;;
49722;SDS011;43484;43.608;1.458;2023-01-01T03:15:23;43.20;;;6.20;;
49722;SDS011;43484;43.608;1.458;2023-01-01T03:18:32;34.30;;;6.95;;
49722;SDS011;43484;43.608;1.458;2023-01-01T03:21:08;31.13;;;5.78;;
49722;SDS011;43484;43.608;1.458;2023-01-01T03:23:39;33.72;;;5.88;;
49722;SDS011;43484;43.608;1.458;2023-01-01T03:26:15;35.20;;;6.53;;
49722;SDS011;43484;43.608;1.458;2023-01-01T03:28:48;28.38;;;5.85;;
49722;SDS011;43484;43.608;1.458;2023-01-01T03:31:20;32.57;;;6.20;;
49722;SDS011;43484;43.608;1.458;2023-01-01T03:33:52;32.25;;;5.85;;
49722;SDS011;43484;43.608;1.458;2023-01-01T03:36:30;37.13;;;6.07;;
49722;SDS011;43484;43.608;1.458;2023-01-01T03:39:14;28.63;;;5.80;;
49722;SDS011;43484;43.608;1.458;2023-01-01T03:41:47;34.28;;;5.75;;
49722;SDS011;43484;43.608;1.458;2023-01-01T03:44:34;27.10;;;6.20;;
49722;SDS011;43484;43.608;1.458;2023-01-01T03:47:08;24.58;;;5.10;;
49722;SDS011;43484;43.608;1.458;2023-01-01T03:49:35;27.35;;;5.93;;
49722;SDS011;43484;43.608;1.458;2023-01-01T03:59:39;29.35;;;5.57;;
49722;SDS011;43484;43.608;1.458;2023-01-01T04:02:07;41.90;;;6.43;;
49722;SDS011;43484;43.608;1.458;2023-01-01T04:04:38;30.92;;;5.80;;
49722;SDS011;43484;43.608;1.458;2023-01-01T04:07:05;32.63;;;6.65;;
49722;SDS011;43484;43.608;1.458;2023-01-01T04:09:40;29.92;;;5.25;;
49722;SDS011;43484;43.608;1.458;2023-01-01T04:12:12;25.40;;;5.63;;
49722;SDS011;43484;43.608;1.458;2023-01-01T04:14:41;29.83;;;5.82;;
49722;SDS011;43484;43.608;1.458;2023-01-01T04:17:08;33.33;;;5.95;;
49722;SDS011;43484;43.608;1.458;2023-01-01T04:19:36;35.83;;;6.13;;
49722;SDS011;43484;43.608;1.458;2023-01-01T04:22:03;35.60;;;6.38;;
49722;SDS011;43484;43.608;1.458;2023-01-01T04:24:30;32.08;;;5.80;;
49722;SDS011;43484;43.608;1.458;2023-01-01T04:26:57;22.92;;;5.25;;
49722;SDS011;43484;43.608;1.458;2023-01-01T04:29:24;33.53;;;6.70;;
49722;SDS011;43484;43.608;1.458;2023-01-01T04:31:51;36.13;;;5.90;;
49722;SDS011;43484;43.608;1.458;2023-01-01T04:34:18;28.23;;;6.22;;
49722;SDS011;43484;43.608;1.458;2023-01-01T04:36:45;27.42;;;5.90;;
49722;SDS011;43484;43.608;1.458;2023-01-01T04:39:11;31.52;;;6.68;;
49722;SDS011;43484;43.608;1.458;2023-01-01T04:41:38;28.85;;;5.82;;
49722;SDS011;43484;43.608;1.458;2023-01-01T04:44:04;26.45;;;6.47;;
49722;SDS011;43484;43.608;1.458;2023-01-01T04:46:31;27.42;;;6.70;;
49722;SDS011;43484;43.608;1.458;2023-01-01T04:48:58;27.35;;;5.75;;
49722;SDS011;43484;43.608;1.458;2023-01-01T04:51:24;37.53;;;6.90;;
49722;SDS011;43484;43.608;1.458;2023-01-01T04:53:51;35.33;;;7.13;;
49722;SDS011;43484;43.608;1.458;2023-01-01T04:56:19;23.48;;;5.47;;
49722;SDS011;43484;43.608;1.458;2023-01-01T04:58:46;33.05;;;6.45;;
49722;SDS011;43484;43.608;1.458;2023-01-01T05:01:21;30.33;;;6.65;;
49722;SDS011;43484;43.608;1.458;2023-01-01T05:03:51;33.22;;;6.65;;
49722;SDS011;43484;43.608;1.458;2023-01-01T05:06:17;27.13;;;6.20;;
49722;SDS011;43484;43.608;1.458;2023-01-01T05:08:45;27.60;;;6.05;;
49722;SDS011;43484;43.608;1.458;2023-01-01T05:11:14;31.08;;;6.40;;
49722;SDS011;43484;43.608;1.458;2023-01-01T05:13:44;33.97;;;6.43;;
49722;SDS011;43484;43.608;1.458;2023-01-01T05:16:14;35.95;;;6.22;;
49722;SDS011;43484;43.608;1.458;2023-01-01T05:18:42;28.40;;;5.63;;
49722;SDS011;43484;43.608;1.458;2023-01-01T05:21:16;28.35;;;5.88;;
49722;SDS011;43484;43.608;1.458;2023-01-01T05:23:44;24.83;;;6.63;;
49722;SDS011;43484;43.608;1.458;2023-01-01T05:26:12;31.45;;;5.30;;
49722;SDS011;43484;43.608;1.458;2023-01-01T05:28:43;34.67;;;6.90;;
49722;SDS011;43484;43.608;1.458;2023-01-01T05:31:15;24.58;;;5.93;;
49722;SDS011;43484;43.608;1.458;2023-01-01T05:33:43;31.10;;;6.55;;
49722;SDS011;43484;43.608;1.458;2023-01-01T05:36:14;27.52;;;5.65;;
49722;SDS011;43484;43.608;1.458;2023-01-01T05:38:43;32.65;;;7.18;;
49722;SDS011;43484;43.608;1.458;2023-01-01T05:41:11;27.23;;;5.82;;
49722;SDS011;43484;43.608;1.458;2023-01-01T05:43:40;31.73;;;6.47;;
49722;SDS011;43484;43.608;1.458;2023-01-01T05:46:08;29.35;;;5.72;;
49722;SDS011;43484;43.608;1.458;2023-01-01T05:48:37;30.73;;;6.38;;
49722;SDS011;43484;43.608;1.458;2023-01-01T05:51:07;34.17;;;6.15;;
49722;SDS011;43484;43.608;1.458;2023-01-01T05:53:36;26.77;;;5.97;;
49722;SDS011;43484;43.608;1.458;2023-01-01T05:56:03;27.95;;;6.05;;
49722;SDS011;43484;43.608;1.458;2023-01-01T05:58:31;27.55;;;5.25;;
49722;SDS011;43484;43.608;1.458;2023-01-01T06:01:07;33.85;;;7.50;;
49722;SDS011;43484;43.608;1.458;2023-01-01T06:03:39;32.55;;;7.20;;
49722;SDS011;43484;43.608;1.458;2023-01-01T06:06:08;27.55;;;5.93;;
49722;SDS011;43484;43.608;1.458;2023-01-01T06:08:37;28.30;;;6.43;;
49722;SDS011;43484;43.608;1.458;2023-01-01T06:11:05;31.38;;;6.45;;
49722;SDS011;43484;43.608;1.458;2023-01-01T06:13:33;25.40;;;5.35;;
49722;SDS011;43484;43.608;1.458;2023-01-01T06:16:00;29.05;;;5.20;;
49722;SDS011;43484;43.608;1.458;2023-01-01T06:18:28;27.48;;;6.07;;
49722;SDS011;43484;43.608;1.458;2023-01-01T06:21:08;34.03;;;5.13;;
49722;SDS011;43484;43.608;1.458;2023-01-01T06:23:36;30.23;;;5.70;;
49722;SDS011;43484;43.608;1.458;2023-01-01T06:26:03;32.08;;;6.60;;
49722;SDS011;43484;43.608;1.458;2023-01-01T06:28:40;32.97;;;6.07;;
49722;SDS011;43484;43.608;1.458;2023-01-01T06:31:09;29.90;;;5.75;;
49722;SDS011;43484;43.608;1.458;2023-01-01T06:33:37;28.17;;;5.72;;
49722;SDS011;43484;43.608;1.458;2023-01-01T06:36:05;28.00;;;5.22;;
49722;SDS011;43484;43.608;1.458;2023-01-01T06:38:34;30.33;;;5.93;;
49722;SDS011;43484;43.608;1.458;2023-01-01T06:41:03;27.83;;;5.47;;
49722;SDS011;43484;43.608;1.458;2023-01-01T06:43:32;28.77;;;6.88;;
49722;SDS011;43484;43.608;1.458;2023-01-01T06:48:29;31.85;;;5.35;;
49722;SDS011;43484;43.608;1.458;2023-01-01T06:50:57;27.85;;;5.03;;
49722;SDS011;43484;43.608;1.458;2023-01-01T06:53:29;27.42;;;5.90;;
49722;SDS011;43484;43.608;1.458;2023-01-01T06:55:56;28.00;;;6.47;;
49722;SDS011;43484;43.608;1.458;2023-01-01T06:58:22;22.73;;;4.68;;
49722;SDS011;43484;43.608;1.458;2023-01-01T07:00:49;24.00;;;5.25;;
49722;SDS011;43484;43.608;1.458;2023-01-01T07:03:16;30.50;;;5.30;;
49722;SDS011;43484;43.608;1.458;2023-01-01T07:05:42;24.45;;;4.93;;
49722;SDS011;43484;43.608;1.458;2023-01-01T07:08:09;21.23;;;4.80;;
49722;SDS011;43484;43.608;1.458;2023-01-01T07:10:35;28.30;;;4.60;;
49722;SDS011;43484;43.608;1.458;2023-01-01T07:13:02;28.02;;;5.03;;
49722;SDS011;43484;43.608;1.458;2023-01-01T07:15:28;21.33;;;5.30;;
49722;SDS011;43484;43.608;1.458;2023-01-01T07:17:56;22.90;;;4.50;;
49722;SDS011;43484;43.608;1.458;2023-01-01T07:20:23;31.42;;;4.93;;
49722;SDS011;43484;43.608;1.458;2023-01-01T07:22:49;35.53;;;6.10;;
49722;SDS011;43484;43.608;1.458;2023-01-01T07:25:16;28.45;;;5.50;;
49722;SDS011;43484;43.608;1.458;2023-01-01T07:27:42;26.73;;;4.65;;
49722;SDS011;43484;43.608;1.458;2023-01-01T07:30:09;30.55;;;5.32;;
49722;SDS011;43484;43.608;1.458;2023-01-01T07:32:36;26.58;;;4.75;;
49722;SDS011;43484;43.608;1.458;2023-01-01T07:35:03;22.77;;;5.30;;
49722;SDS011;43484;43.608;1.458;2023-01-01T07:37:30;24.63;;;5.32;;
49722;SDS011;43484;43.608;1.458;2023-01-01T07:39:56;35.63;;;5.70;;
49722;SDS011;43484;43.608;1.458;2023-01-01T07:42:23;22.70;;;4.60;;
49722;SDS011;43484;43.608;1.458;2023-01-01T07:44:49;24.73;;;4.97;;
49722;SDS011;43484;43.608;1.458;2023-01-01T07:47:23;29.58;;;5.28;;
49722;SDS011;43484;43.608;1.458;2023-01-01T07:49:51;26.55;;;4.78;;
49722;SDS011;43484;43.608;1.458;2023-01-01T07:52:18;34.03;;;5.55;;
49722;SDS011;43484;43.608;1.458;2023-01-01T07:54:45;29.33;;;6.97;;
49722;SDS011;43484;43.608;1.458;2023-01-01T07:57:12;29.20;;;5.75;;
49722;SDS011;43484;43.608;1.458;2023-01-01T07:59:39;26.23;;;5.55;;
49722;SDS011;43484;43.608;1.458;2023-01-01T08:02:05;27.42;;;5.13;;
49722;SDS011;43484;43.608;1.458;2023-01-01T08:04:32;26.52;;;4.57;;
49722;SDS011;43484;43.608;1.458;2023-01-01T08:06:59;23.38;;;5.28;;
49722;SDS011;43484;43.608;1.458;2023-01-01T08:09:25;22.10;;;5.40;;
49722;SDS011;43484;43.608;1.458;2023-01-01T08:11:52;22.02;;;4.97;;
49722;SDS011;43484;43.608;1.458;2023-01-01T08:14:19;29.40;;;5.60;;
49722;SDS011;43484;43.608;1.458;2023-01-01T08:16:45;26.55;;;5.43;;
49722;SDS011;43484;43.608;1.458;2023-01-01T08:19:12;27.30;;;5.38;;
49722;SDS011;43484;43.608;1.458;2023-01-01T08:21:38;21.23;;;5.50;;
49722;SDS011;43484;43.608;1.458;2023-01-01T08:24:05;30.27;;;5.88;;
49722;SDS011;43484;43.608;1.458;2023-01-01T08:26:33;34.63;;;6.05;;
49722;SDS011;43484;43.608;1.458;2023-01-01T08:29:02;24.90;;;4.22;;
49722;SDS011;43484;43.608;1.458;2023-01-01T08:31:31;29.48;;;5.35;;
49722;SDS011;43484;43.608;1.458;2023-01-01T08:33:58;25.50;;;5.35;;
49722;SDS011;43484;43.608;1.458;2023-01-01T08:36:25;35.75;;;4.90;;
49722;SDS011;43484;43.608;1.458;2023-01-01T08:38:51;27.42;;;5.10;;
49722;SDS011;43484;43.608;1.458;2023-01-01T08:41:18;23.98;;;4.90;;
49722;SDS011;43484;43.608;1.458;2023-01-01T08:43:44;28.42;;;5.50;;
49722;SDS011;43484;43.608;1.458;2023-01-01T08:46:11;34.08;;;5.45;;
49722;SDS011;43484;43.608;1.458;2023-01-01T08:48:38;22.65;;;5.00;;
49722;SDS011;43484;43.608;1.458;2023-01-01T08:51:05;34.20;;;6.50;;
49722;SDS011;43484;43.608;1.458;2023-01-01T08:53:32;22.42;;;4.72;;
49722;SDS011;43484;43.608;1.458;2023-01-01T08:55:59;30.80;;;6.03;;
49722;SDS011;43484;43.608;1.458;2023-01-01T08:58:29;19.48;;;4.18;;
49722;SDS011;43484;43.608;1.458;2023-01-01T09:00:56;28.23;;;6.60;;
49722;SDS011;43484;43.608;1.458;2023-01-01T09:03:24;31.30;;;4.60;;
49722;SDS011;43484;43.608;1.458;2023-01-01T09:05:51;24.63;;;5.28;;
49722;SDS011;43484;43.608;1.458;2023-01-01T09:08:19;28.25;;;4.88;;
49722;SDS011;43484;43.608;1.458;2023-01-01T09:10:46;24.70;;;6.00;;
49722;SDS011;43484;43.608;1.458;2023-01-01T09:13:14;32.97;;;5.07;;
49722;SDS011;43484;43.608;1.458;2023-01-01T09:15:42;27.65;;;5.25;;
49722;SDS011;43484;43.608;1.458;2023-01-01T09:18:08;22.83;;;4.55;;
49722;SDS011;43484;43.608;1.458;2023-01-01T09:20:35;27.15;;;4.85;;
49722;SDS011;43484;43.608;1.458;2023-01-01T09:23:02;14.45;;;3.63;;
49722;SDS011;43484;43.608;1.458;2023-01-01T09:25:31;25.80;;;4.72;;
49722;SDS011;43484;43.608;1.458;2023-01-01T09:28:03;22.63;;;4.35;;
49722;SDS011;43484;43.608;1.458;2023-01-01T09:30:31;25.08;;;4.10;;
49722;SDS011;43484;43.608;1.458;2023-01-01T09:32:58;23.92;;;5.43;;
49722;SDS011;43484;43.608;1.458;2023-01-01T09:35:24;18.95;;;5.22;;
49722;SDS011;43484;43.608;1.458;2023-01-01T09:37:51;28.00;;;4.97;;
49722;SDS011;43484;43.608;1.458;2023-01-01T09:40:23;28.33;;;5.85;;
49722;SDS011;43484;43.608;1.458;2023-01-01T09:42:59;31.27;;;4.30;;
49722;SDS011;43484;43.608;1.458;2023-01-01T09:45:36;29.52;;;5.68;;
49722;SDS011;43484;43.608;1.458;2023-01-01T09:48:15;28.38;;;5.07;;
49722;SDS011;43484;43.608;1.458;2023-01-01T09:50:43;19.20;;;4.18;;
49722;SDS011;43484;43.608;1.458;2023-01-01T09:53:15;22.33;;;5.07;;
49722;SDS011;43484;43.608;1.458;2023-01-01T09:55:58;27.25;;;5.45;;
49722;SDS011;43484;43.608;1.458;2023-01-01T09:58:33;23.13;;;5.80;;
49722;SDS011;43484;43.608;1.458;2023-01-01T10:01:05;24.02;;;4.45;;
49722;SDS011;43484;43.608;1.458;2023-01-01T10:06:21;26.83;;;5.38;;
49722;SDS011;43484;43.608;1.458;2023-01-01T10:09:03;25.67;;;3.97;;
49722;SDS011;43484;43.608;1.458;2023-01-01T10:11:44;27.63;;;5.45;;
49722;SDS011;43484;43.608;1.458;2023-01-01T10:17:31;25.63;;;4.85;;
49722;SDS011;43484;43.608;1.458;2023-01-01T10:23:17;23.27;;;4.78;;
49722;SDS011;43484;43.608;1.458;2023-01-01T10:25:48;20.83;;;3.63;;
49722;SDS011;43484;43.608;1.458;2023-01-01T10:30:53;16.88;;;3.85;;
49722;SDS011;43484;43.608;1.458;2023-01-01T10:33:43;17.17;;;4.03;;
49722;SDS011;43484;43.608;1.458;2023-01-01T10:36:12;14.48;;;3.83;;
49722;SDS011;43484;43.608;1.458;2023-01-01T10:38:40;24.65;;;4.70;;
49722;SDS011;43484;43.608;1.458;2023-01-01T10:41:08;20.63;;;4.97;;
49722;SDS011;43484;43.608;1.458;2023-01-01T10:43:44;18.90;;;3.20;;
49722;SDS011;43484;43.608;1.458;2023-01-01T10:46:12;22.80;;;4.05;;
49722;SDS011;43484;43.608;1.458;2023-01-01T10:49:02;19.20;;;3.42;;
49722;SDS011;43484;43.608;1.458;2023-01-01T10:51:46;15.38;;;3.53;;
49722;SDS011;43484;43.608;1.458;2023-01-01T10:54:33;18.58;;;3.40;;
49722;SDS011;43484;43.608;1.458;2023-01-01T10:57:11;20.55;;;4.78;;
49722;SDS011;43484;43.608;1.458;2023-01-01T10:59:42;16.60;;;3.60;;
49722;SDS011;43484;43.608;1.458;2023-01-01T11:04:46;19.00;;;3.30;;
49722;SDS011;43484;43.608;1.458;2023-01-01T11:07:31;19.20;;;3.70;;
49722;SDS011;43484;43.608;1.458;2023-01-01T11:10:00;16.80;;;3.10;;
49722;SDS011;43484;43.608;1.458;2023-01-01T11:12:33;19.08;;;3.15;;
49722;SDS011;43484;43.608;1.458;2023-01-01T11:15:23;17.48;;;2.97;;
49722;SDS011;43484;43.608;1.458;2023-01-01T11:18:04;15.18;;;3.72;;
49722;SDS011;43484;43.608;1.458;2023-01-01T11:20:36;20.63;;;3.83;;
49722;SDS011;43484;43.608;1.458;2023-01-01T11:23:17;17.00;;;3.38;;
49722;SDS011;43484;43.608;1.458;2023-01-01T11:25:58;21.25;;;3.03;;
49722;SDS011;43484;43.608;1.458;2023-01-01T11:28:32;22.15;;;3.63;;
49722;SDS011;43484;43.608;1.458;2023-01-01T11:31:11;15.25;;;3.42;;
49722;SDS011;43484;43.608;1.458;2023-01-01T11:33:46;18.75;;;3.33;;
49722;SDS011;43484;43.608;1.458;2023-01-01T11:39:29;18.15;;;3.70;;
49722;SDS011;43484;43.608;1.458;2023-01-01T11:41:55;12.70;;;2.63;;
49722;SDS011;43484;43.608;1.458;2023-01-01T11:44:34;17.02;;;3.40;;
49722;SDS011;43484;43.608;1.458;2023-01-01T11:47:03;13.32;;;3.03;;
49722;SDS011;43484;43.608;1.458;2023-01-01T11:49:32;20.27;;;4.07;;
49722;SDS011;43484;43.608;1.458;2023-01-01T11:51:59;18.33;;;4.10;;
49722;SDS011;43484;43.608;1.458;2023-01-01T11:54:32;12.50;;;3.22;;
49722;SDS011;43484;43.608;1.458;2023-01-01T11:57:12;18.05;;;3.40;;
49722;SDS011;43484;43.608;1.458;2023-01-01T11:59:48;17.27;;;3.47;;
49722;SDS011;43484;43.608;1.458;2023-01-01T12:02:23;22.65;;;3.83;;
49722;SDS011;43484;43.608;1.458;2023-01-01T12:05:43;20.80;;;3.72;;
49722;SDS011;43484;43.608;1.458;2023-01-01T12:07:50;21.02;;;3.70;;
49722;SDS011;43484;43.608;1.458;2023-01-01T12:10:20;19.80;;;3.10;;
49722;SDS011;43484;43.608;1.458;2023-01-01T12:12:56;18.50;;;3.78;;
49722;SDS011;43484;43.608;1.458;2023-01-01T12:15:40;19.15;;;3.13;;
49722;SDS011;43484;43.608;1.458;2023-01-01T12:21:15;17.77;;;3.60;;
49722;SDS011;43484;43.608;1.458;2023-01-01T12:23:42;13.82;;;3.60;;
49722;SDS011;43484;43.608;1.458;2023-01-01T12:26:20;21.35;;;3.50;;
49722;SDS011;43484;43.608;1.458;2023-01-01T12:29:09;20.73;;;2.72;;
49722;SDS011;43484;43.608;1.458;2023-01-01T12:34:45;15.90;;;3.03;;
49722;SDS011;43484;43.608;1.458;2023-01-01T13:00:28;13.38;;;3.30;;
49722;SDS011;43484;43.608;1.458;2023-01-01T13:02:59;18.15;;;3.35;;
49722;SDS011;43484;43.608;1.458;2023-01-01T13:05:34;12.65;;;3.05;;
49722;SDS011;43484;43.608;1.458;2023-01-01T13:08:03;20.42;;;3.05;;
49722;SDS011;43484;43.608;1.458;2023-01-01T13:10:32;22.48;;;4.20;;
49722;SDS011;43484;43.608;1.458;2023-01-01T13:13:02;14.35;;;3.78;;
49722;SDS011;43484;43.608;1.458;2023-01-01T13:15:33;12.68;;;2.90;;
49722;SDS011;43484;43.608;1.458;2023-01-01T13:18:02;15.73;;;3.20;;
49722;SDS011;43484;43.608;1.458;2023-01-01T13:20:43;15.50;;;2.97;;
49722;SDS011;43484;43.608;1.458;2023-01-01T13:23:39;18.50;;;3.55;;
49722;SDS011;43484;43.608;1.458;2023-01-01T13:32:10;16.58;;;3.85;;
49722;SDS011;43484;43.608;1.458;2023-01-01T13:45:38;18.85;;;3.53;;
49722;SDS011;43484;43.608;1.458;2023-01-01T13:51:55;18.80;;;4.00;;
49722;SDS011;43484;43.608;1.458;2023-01-01T13:57:02;18.92;;;4.35;;
49722;SDS011;43484;43.608;1.458;2023-01-01T13:59:50;15.10;;;3.88;;
49722;SDS011;43484;43.608;1.458;2023-01-01T14:02:32;25.52;;;3.80;;
49722;SDS011;43484;43.608;1.458;2023-01-01T14:07:42;19.55;;;3.55;;
49722;SDS011;43484;43.608;1.458;2023-01-01T14:12:44;17.95;;;3.70;;
49722;SDS011;43484;43.608;1.458;2023-01-01T14:17:58;20.70;;;4.07;;
49722;SDS011;43484;43.608;1.458;2023-01-01T14:20:31;21.85;;;3.70;;
49722;SDS011;43484;43.608;1.458;2023-01-01T14:23:11;19.55;;;4.43;;
49722;SDS011;43484;43.608;1.458;2023-01-01T14:25:42;23.65;;;4.47;;
49722;SDS011;43484;43.608;1.458;2023-01-01T14:28:21;21.65;;;3.47;;
49722;SDS011;43484;43.608;1.458;2023-01-01T14:30:52;14.15;;;3.60;;
49722;SDS011;43484;43.608;1.458;2023-01-01T14:33:24;15.38;;;3.33;;
49722;SDS011;43484;43.608;1.458;2023-01-01T14:35:54;19.92;;;3.83;;
49722;SDS011;43484;43.608;1.458;2023-01-01T14:38:23;11.90;;;3.33;;
49722;SDS011;43484;43.608;1.458;2023-01-01T14:43:27;17.17;;;4.32;;
49722;SDS011;43484;43.608;1.458;2023-01-01T14:45:54;21.58;;;4.32;;
49722;SDS011;43484;43.608;1.458;2023-01-01T14:48:21;18.00;;;4.70;;
49722;SDS011;43484;43.608;1.458;2023-01-01T14:50:48;20.75;;;4.50;;
49722;SDS011;43484;43.608;1.458;2023-01-01T14:53:17;10.63;;;4.13;;
49722;SDS011;43484;43.608;1.458;2023-01-01T14:55:48;17.25;;;4.68;;
49722;SDS011;43484;43.608;1.458;2023-01-01T14:58:19;15.80;;;4.28;;
49722;SDS011;43484;43.608;1.458;2023-01-01T15:00:48;10.20;;;3.85;;
49722;SDS011;43484;43.608;1.458;2023-01-01T15:03:17;14.52;;;4.00;;
49722;SDS011;43484;43.608;1.458;2023-01-01T15:05:56;14.75;;;3.35;;
49722;SDS011;43484;43.608;1.458;2023-01-01T15:08:24;10.13;;;3.40;;
49722;SDS011;43484;43.608;1.458;2023-01-01T15:10:52;16.88;;;4.93;;
49722;SDS011;43484;43.608;1.458;2023-01-01T15:13:21;11.20;;;3.72;;
49722;SDS011;43484;43.608;1.458;2023-01-01T15:15:51;10.88;;;3.63;;
49722;SDS011;43484;43.608;1.458;2023-01-01T15:18:33;8.38;;;4.13;;
49722;SDS011;43484;43.608;1.458;2023-01-01T15:21:00;9.75;;;3.90;;
49722;SDS011;43484;43.608;1.458;2023-01-01T15:23:32;15.35;;;4.15;;
49722;SDS011;43484;43.608;1.458;2023-01-01T15:26:00;15.38;;;4.22;;
49722;SDS011;43484;43.608;1.458;2023-01-01T15:28:26;12.52;;;4.28;;
49722;SDS011;43484;43.608;1.458;2023-01-01T15:30:54;16.13;;;4.68;;
49722;SDS011;43484;43.608;1.458;2023-01-01T15:33:22;18.05;;;4.72;;
49722;SDS011;43484;43.608;1.458;2023-01-01T15:35:49;9.25;;;3.95;;
49722;SDS011;43484;43.608;1.458;2023-01-01T15:38:21;21.10;;;4.75;;
49722;SDS011;43484;43.608;1.458;2023-01-01T15:40:50;16.60;;;3.97;;
49722;SDS011;43484;43.608;1.458;2023-01-01T15:45:51;26.25;;;5.35;;
49722;SDS011;43484;43.608;1.458;2023-01-01T15:51:04;13.20;;;4.00;;
49722;SDS011;43484;43.608;1.458;2023-01-01T15:56:31;10.43;;;3.22;;
49722;SDS011;43484;43.608;1.458;2023-01-01T15:59:13;21.50;;;4.05;;
49722;SDS011;43484;43.608;1.458;2023-01-01T16:01:47;17.20;;;4.75;;
49722;SDS011;43484;43.608;1.458;2023-01-01T16:04:16;18.13;;;4.25;;
49722;SDS011;43484;43.608;1.458;2023-01-01T16:06:53;14.15;;;3.65;;
49722;SDS011;43484;43.608;1.458;2023-01-01T16:09:22;24.30;;;5.10;;
49722;SDS011;43484;43.608;1.458;2023-01-01T16:11:52;12.48;;;3.67;;
49722;SDS011;43484;43.608;1.458;2023-01-01T16:14:20;13.32;;;3.50;;
49722;SDS011;43484;43.608;1.458;2023-01-01T16:16:49;19.30;;;4.30;;
49722;SDS011;43484;43.608;1.458;2023-01-01T16:19:22;21.42;;;4.10;;
49722;SDS011;43484;43.608;1.458;2023-01-01T16:21:49;18.48;;;3.63;;
49722;SDS011;43484;43.608;1.458;2023-01-01T16:24:16;20.42;;;5.13;;
49722;SDS011;43484;43.608;1.458;2023-01-01T16:26:44;22.15;;;5.68;;
49722;SDS011;43484;43.608;1.458;2023-01-01T16:29:11;21.73;;;5.28;;
49722;SDS011;43484;43.608;1.458;2023-01-01T16:31:38;28.17;;;4.10;;
49722;SDS011;43484;43.608;1.458;2023-01-01T16:34:06;22.23;;;4.82;;
49722;SDS011;43484;43.608;1.458;2023-01-01T16:36:32;18.67;;;3.58;;
49722;SDS011;43484;43.608;1.458;2023-01-01T16:38:59;20.30;;;3.92;;
49722;SDS011;43484;43.608;1.458;2023-01-01T16:41:26;17.30;;;4.25;;
49722;SDS011;43484;43.608;1.458;2023-01-01T16:43:56;23.23;;;4.80;;
49722;SDS011;43484;43.608;1.458;2023-01-01T16:46:23;23.13;;;3.90;;
49722;SDS011;43484;43.608;1.458;2023-01-01T16:48:49;25.00;;;4.45;;
49722;SDS011;43484;43.608;1.458;2023-01-01T16:51:19;18.17;;;3.60;;
49722;SDS011;43484;43.608;1.458;2023-01-01T16:53:49;17.38;;;4.15;;
49722;SDS011;43484;43.608;1.458;2023-01-01T16:56:15;24.35;;;5.20;;
49722;SDS011;43484;43.608;1.458;2023-01-01T16:58:42;17.58;;;4.07;;
49722;SDS011;43484;43.608;1.458;2023-01-01T17:01:23;21.35;;;3.70;;